Time;durP1;ratioP1;P1;durP2;ratioP2;P2;SDS_P1;SDS_P2;PMS_P1;PMS_P2;Temp;Humidity;BMP_temperature;BMP_pressure;BME280_temperature;BME280_humidity;BME280_pressure;Samples;Min_cycle;Max_cycle;Signal;HPM_P1;HPM_P2
2022/05/28 00:00:33;;;;;;;8.85;4.42;;;;;;;8.56;75.23;96961.86;1822427;78;25748;-75
2022/05/28 00:03:03;;;;;;;5.78;4.28;;;;;;;8.61;75.29;96958.52;1822214;78;25756;-75
2022/05/28 00:05:30;;;;;;;10.32;4.58;;;;;;;8.59;75.21;96957.39;1822228;78;26566;-77
2022/05/28 00:07:56;;;;;;;6.37;4.42;;;;;;;8.63;75.18;96961.84;1822527;78;25791;-75
2022/05/28 00:10:23;;;;;;;10.08;4.35;;;;;;;8.56;75.20;96955.66;1822509;78;27412;-75
2022/05/28 00:12:50;;;;;;;5.37;3.58;;;;;;;8.58;75.33;96964.31;1822389;78;26336;-75
2022/05/28 00:15:16;;;;;;;5.65;3.30;;;;;;;8.55;75.11;96959.37;1822538;78;25724;-77
2022/05/28 00:17:43;;;;;;;6.92;4.33;;;;;;;8.48;75.08;96955.85;1822672;78;26394;-76
2022/05/28 00:20:11;;;;;;;10.23;4.90;;;;;;;8.46;75.24;96963.30;1822649;78;25659;-75
2022/05/28 00:22:41;;;;;;;7.85;4.67;;;;;;;8.44;75.30;96962.70;1822422;78;27433;-76
2022/05/28 00:25:10;;;;;;;5.67;3.70;;;;;;;8.48;75.34;96961.23;1822348;78;25674;-75
2022/05/28 00:27:38;;;;;;;7.05;4.53;;;;;;;8.49;75.31;96961.03;1822705;78;25487;-75
2022/05/28 00:30:06;;;;;;;6.10;4.40;;;;;;;8.50;75.32;96963.20;1822881;78;26476;-76
2022/05/28 00:32:33;;;;;;;9.13;5.28;;;;;;;8.47;75.32;96952.34;1822401;78;25672;-75
2022/05/28 00:35:00;;;;;;;8.15;4.40;;;;;;;8.49;75.45;96956.16;1822635;78;28210;-76
2022/05/28 00:37:26;;;;;;;10.10;6.35;;;;;;;8.47;75.42;96951.50;1822584;78;25735;-76
2022/05/28 00:39:53;;;;;;;9.40;5.80;;;;;;;8.44;75.47;96949.26;1822696;78;26794;-76
2022/05/28 00:42:19;;;;;;;7.33;6.17;;;;;;;8.44;75.58;96949.26;1822690;78;25739;-75
2022/05/28 00:44:46;;;;;;;11.57;6.47;;;;;;;8.41;75.59;96946.46;1822724;78;25683;-76
2022/05/28 00:47:13;;;;;;;10.95;6.58;;;;;;;8.36;75.65;96946.77;1822748;78;27457;-75
2022/05/28 00:49:41;;;;;;;10.53;5.95;;;;;;;8.37;75.79;96943.05;1822529;78;25968;-76
2022/05/28 00:52:08;;;;;;;9.25;5.22;;;;;;;8.33;75.79;96939.13;1822625;78;25756;-76
2022/05/28 00:54:40;;;;;;;9.23;5.03;;;;;;;8.34;75.95;96932.69;1822692;78;25708;-75
2022/05/28 00:57:08;;;;;;;9.60;5.17;;;;;;;8.35;75.91;96935.69;1822738;78;25734;-75
2022/05/28 00:59:35;;;;;;;7.60;4.40;;;;;;;8.38;75.96;96936.11;1822775;78;28109;-76
2022/05/28 01:02:39;;;;;;;5.10;3.80;;;;;;;8.40;75.94;96935.39;1822595;78;25770;-75
2022/05/28 01:05:17;;;;;;;6.87;3.85;;;;;;;8.42;75.80;96943.25;1822644;78;25625;-75
2022/05/28 01:08:04;;;;;;;5.47;3.60;;;;;;;8.36;75.54;96939.52;1818876;78;25739;-76
2022/05/28 01:11:11;;;;;;;6.78;4.25;;;;;;;8.24;75.36;96937.95;1753287;81;25803;-76
2022/05/28 01:14:12;;;;;;;5.40;3.27;;;;;;;8.22;75.57;96935.98;1752468;81;27626;-77
2022/05/28 01:16:52;;;;;;;6.85;3.30;;;;;;;8.17;75.56;96930.42;1755937;81;25877;-76
2022/05/28 01:19:49;;;;;;;4.55;3.50;;;;;;;8.14;75.51;96938.89;1688302;84;25980;-78
2022/05/28 01:22:42;;;;;;;4.92;3.62;;;;;;;8.07;75.42;96926.50;1675445;85;25829;-77
2022/05/28 01:25:14;;;;;;;;;;;;;;;8.02;75.62;96931.66;1672799;85;25685;-78
2022/05/28 01:27:52;;;;;;;4.55;3.45;;;;;;;8.01;75.82;96930.83;1672447;85;27510;-78
2022/05/28 01:30:19;;;;;;;5.90;3.77;;;;;;;7.99;75.84;96926.17;1671797;85;25708;-77
2022/05/28 01:32:52;;;;;;;6.08;4.30;;;;;;;7.98;75.88;96925.86;1675453;85;25789;-77
2022/05/28 01:35:22;;;;;;;6.72;3.83;;;;;;;7.94;75.85;96917.91;1652721;85;26766;-77
2022/05/28 01:37:50;;;;;;;6.85;3.85;;;;;;;7.94;76.00;96917.40;1675730;85;26539;-77
2022/05/28 01:40:19;;;;;;;10.45;4.08;;;;;;;7.97;76.01;96907.28;1655849;85;27481;-77
2022/05/28 01:42:51;;;;;;;7.78;4.40;;;;;;;7.92;76.11;96909.23;1673648;85;25833;-78
2022/05/28 01:45:21;;;;;;;6.03;4.20;;;;;;;7.92;76.26;96903.34;1673326;85;32439;-78
2022/05/28 01:47:50;;;;;;;9.13;4.95;;;;;;;7.93;76.40;96900.96;1717514;82;25766;-78
2022/05/28 01:50:21;;;;;;;5.92;4.33;;;;;;;7.96;76.35;96902.41;1732387;82;25817;-77
2022/05/28 01:52:50;;;;;;;5.45;4.33;;;;;;;7.98;76.34;96904.88;1732450;82;27441;-77
2022/05/28 01:55:18;;;;;;;8.10;5.08;;;;;;;7.99;76.46;96903.84;1732191;82;25826;-77
2022/05/28 01:57:45;;;;;;;5.95;4.83;;;;;;;8.03;76.52;96907.27;1732222;82;25743;-77
2022/05/28 02:00:13;;;;;;;6.70;4.97;;;;;;;8.03;76.64;96907.27;1719224;82;26657;-77
2022/05/28 02:02:39;;;;;;;7.20;4.60;;;;;;;8.06;76.70;96912.23;1717388;83;25952;-77
2022/05/28 02:05:07;;;;;;;7.00;4.35;;;;;;;8.06;76.70;96908.20;1717348;83;27485;-77
2022/05/28 02:07:34;;;;;;;7.67;4.75;;;;;;;8.06;76.70;96900.13;1717156;83;25803;-77
2022/05/28 02:10:08;;;;;;;6.60;4.80;;;;;;;8.03;76.76;96897.85;1717326;83;25325;-78
2022/05/28 02:13:19;;;;;;;5.47;4.20;;;;;;;8.08;76.98;96922.27;1717293;83;25819;-77
2022/05/28 02:15:59;;;;;;;6.28;4.78;;;;;;;8.13;77.01;96922.45;1653510;84;25890;-79
2022/05/28 02:18:49;;;;;;;5.78;4.72;;;;;;;8.18;77.13;96924.02;1693551;84;27437;-77
2022/05/28 02:21:21;;;;;;;11.38;4.53;;;;;;;8.14;77.18;96920.08;1696919;84;25785;-78
2022/05/28 02:23:59;;;;;;;5.70;4.78;;;;;;;8.17;77.34;96915.63;1636934;87;25840;-77
2022/05/28 02:26:39;;;;;;;9.65;5.47;;;;;;;8.21;77.39;96918.20;1631557;87;25927;-77
2022/05/28 02:29:07;;;;;;;8.78;5.35;;;;;;;8.25;77.49;96924.81;1633048;87;26822;-77
2022/05/28 02:31:35;;;;;;;6.95;5.65;;;;;;;8.27;77.42;96928.65;1635037;87;27467;-78
2022/05/28 02:34:03;;;;;;;8.05;5.50;;;;;;;8.29;77.41;96915.31;1635002;87;25717;-77
2022/05/28 02:36:30;;;;;;;8.10;5.70;;;;;;;8.32;77.48;96924.86;1635098;87;25824;-78
2022/05/28 02:38:57;;;;;;;6.37;5.50;;;;;;;8.28;77.55;96919.03;1645154;86;26390;-78
2022/05/28 02:41:24;;;;;;;13.43;5.42;;;;;;;8.33;77.57;96917.62;1660394;86;25823;-77
2022/05/28 02:43:52;;;;;;;6.42;4.85;;;;;;;8.33;77.57;96916.28;1660547;86;27386;-78
2022/05/28 02:46:19;;;;;;;6.67;5.05;;;;;;;8.29;77.63;96912.63;1660518;86;25980;-77
2022/05/28 02:48:46;;;;;;;7.97;5.03;;;;;;;8.27;77.63;96914.69;1660551;86;25806;-78
2022/05/28 02:51:19;;;;;;;6.03;4.62;;;;;;;8.33;77.71;96909.55;1660571;86;25719;-78
2022/05/28 02:53:47;;;;;;;8.85;4.58;;;;;;;8.40;77.78;96910.36;1711025;83;26086;-77
2022/05/28 02:56:13;;;;;;;7.47;5.33;;;;;;;8.37;77.70;96908.91;1712853;83;27384;-78
2022/05/28 02:58:40;;;;;;;8.35;5.03;;;;;;;8.36;77.71;96904.56;1712896;83;25713;-78
2022/05/28 03:01:30;;;;;;;6.33;4.62;;;;;;;8.36;77.63;96903.73;1704466;83;25946;-77
2022/05/28 03:03:57;;;;;;;8.35;5.33;;;;;;;8.34;77.59;96901.77;1618806;88;26572;-78
2022/05/28 03:06:23;;;;;;;6.65;4.33;;;;;;;8.30;77.61;96899.48;1635659;87;25889;-78
2022/05/28 03:08:50;;;;;;;8.40;4.37;;;;;;;8.34;77.64;96897.73;1635688;87;27355;-79
2022/05/28 03:11:16;;;;;;;4.40;4.00;;;;;;;8.33;77.51;96900.97;1635569;87;25817;-78
2022/05/28 03:13:43;;;;;;;7.47;4.00;;;;;;;8.31;77.42;96901.66;1635741;87;26690;-78
2022/05/28 03:16:11;;;;;;;6.05;4.55;;;;;;;8.29;77.25;96903.73;1635419;87;26041;-77
2022/05/28 03:18:37;;;;;;;6.62;4.78;;;;;;;8.22;77.22;96910.44;1635712;87;25999;-79
2022/05/28 03:21:07;;;;;;;5.35;4.22;;;;;;;8.19;77.22;96898.78;1635689;87;27454;-78
2022/05/28 03:23:34;;;;;;;8.33;4.70;;;;;;;8.19;77.32;96907.36;1646425;86;25941;-77
2022/05/28 03:26:23;;;;;;;7.97;4.72;;;;;;;8.20;77.35;96904.47;1611370;89;25783;-78
2022/05/28 03:28:51;;;;;;;6.17;4.28;;;;;;;8.19;77.28;96909.53;1611404;89;25672;-78
2022/05/28 03:31:19;;;;;;;6.03;4.10;;;;;;;8.15;77.29;96905.59;1611201;89;25878;-79
2022/05/28 03:33:46;;;;;;;7.90;4.75;;;;;;;8.19;77.32;96910.88;1611352;89;27449;-79
2022/05/28 03:36:13;;;;;;;6.05;4.00;;;;;;;8.13;77.19;96906.31;1611270;89;25747;-77
2022/05/28 03:38:39;;;;;;;7.67;4.45;;;;;;;8.06;77.30;96910.06;1611412;89;25413;-79
2022/05/28 03:41:06;;;;;;;7.30;4.67;;;;;;;8.06;77.43;96910.06;1631363;87;25813;-77
2022/05/28 03:43:32;;;;;;;5.42;4.17;;;;;;;8.08;77.55;96904.79;1638812;87;25814;-79
2022/05/28 03:45:59;;;;;;;7.75;5.05;;;;;;;8.10;77.52;96906.73;1671486;85;27450;-77
2022/05/28 03:48:26;;;;;;;5.55;5.00;;;;;;;8.12;77.48;96903.31;1665897;86;25886;-78
2022/05/28 03:50:53;;;;;;;7.25;5.05;;;;;;;8.14;77.36;96901.77;1715107;82;25739;-78
2022/05/28 03:53:20;;;;;;;7.78;5.30;;;;;;;8.14;77.31;96909.32;1749060;82;25734;-78
2022/05/28 03:55:47;;;;;;;5.85;4.87;;;;;;;8.16;77.36;96903.73;1749386;82;26123;-78
2022/05/28 03:58:14;;;;;;;7.03;4.70;;;;;;;8.18;77.39;96902.50;1749236;82;27352;-77
2022/05/28 04:00:41;;;;;;;5.70;4.45;;;;;;;8.21;77.38;96899.37;1749324;82;25705;-77
2022/05/28 04:03:09;;;;;;;6.28;4.67;;;;;;;8.22;77.35;96901.03;1749541;82;25778;-77
2022/05/28 04:05:39;;;;;;;4.37;4.00;;;;;;;8.24;77.34;96898.97;1749362;82;25837;-77
2022/05/28 04:08:07;;;;;;;8.33;4.25;;;;;;;8.27;77.39;96901.24;1749498;82;25678;-77
2022/05/28 04:10:34;;;;;;;6.35;5.22;;;;;;;8.32;77.49;96895.28;1749375;82;28094;-78
2022/05/28 04:13:00;;;;;;;10.58;5.87;;;;;;;8.36;77.56;96898.36;1749230;82;25609;-78
2022/05/28 04:15:28;;;;;;;7.05;5.35;;;;;;;8.42;77.66;96898.87;1749190;82;25845;-78
2022/05/28 04:17:55;;;;;;;9.03;4.55;;;;;;;8.49;77.65;96894.30;1749422;82;25774;-79
2022/05/28 04:20:22;;;;;;;6.33;5.17;;;;;;;8.52;77.60;96897.41;1749353;81;26140;-80
2022/05/28 04:22:49;;;;;;;7.05;4.80;;;;;;;8.56;77.58;96897.30;1750635;80;27475;-77
2022/05/28 04:25:15;;;;;;;9.43;5.60;;;;;;;8.59;77.67;96890.64;1782668;80;25705;-78
2022/05/28 04:27:42;;;;;;;6.28;4.80;;;;;;;8.65;77.77;96892.50;1782822;80;25669;-78
2022/05/28 04:30:10;;;;;;;7.25;4.80;;;;;;;8.69;77.87;96893.75;1782830;80;26473;-79
2022/05/28 04:32:37;;;;;;;4.97;4.42;;;;;;;8.76;77.93;96891.02;1782861;80;25751;-78
2022/05/28 04:35:04;;;;;;;6.47;4.60;;;;;;;8.81;78.01;96889.36;1782858;80;27365;-78
2022/05/28 04:37:30;;;;;;;6.25;5.03;;;;;;;8.84;78.01;96887.56;1789177;79;25728;-79
2022/05/28 04:39:57;;;;;;;6.70;4.72;;;;;;;8.88;78.03;96882.07;1792211;80;25962;-78
2022/05/28 04:42:24;;;;;;;7.50;4.83;;;;;;;8.95;77.97;96880.16;1792250;80;25708;-78
2022/05/28 04:44:50;;;;;;;8.45;4.70;;;;;;;9.01;78.03;96889.27;1809324;79;26089;-78
2022/05/28 04:47:17;;;;;;;7.55;4.75;;;;;;;9.07;77.98;96886.22;1809028;79;27322;-81
2022/05/28 04:49:43;;;;;;;6.47;4.45;;;;;;;9.13;78.07;96885.38;1809124;79;25721;-81
2022/05/28 04:52:10;;;;;;;7.00;4.65;;;;;;;9.20;78.11;96879.42;1808923;79;25649;-81
2022/05/28 04:54:36;;;;;;;5.65;4.60;;;;;;;9.27;78.03;96882.41;1809059;79;25667;-79
2022/05/28 04:57:04;;;;;;;11.43;4.37;;;;;;;9.34;78.02;96870.23;1809446;79;25705;-80
2022/05/28 04:59:30;;;;;;;7.95;4.35;;;;;;;9.42;78.05;96861.09;1809240;79;27424;-79
2022/05/28 05:01:57;;;;;;;5.97;3.98;;;;;;;9.48;77.93;96863.73;1809053;79;25675;-79
2022/05/28 05:04:24;;;;;;;8.73;4.35;;;;;;;9.54;77.78;96860.14;1809312;78;25756;-79
2022/05/28 05:06:50;;;;;;;15.00;5.15;;;;;;;9.61;77.72;96864.98;1809264;79;25716;-78
2022/05/28 05:09:17;;;;;;;9.63;4.50;;;;;;;9.67;77.72;96861.41;1809001;79;26725;-80
2022/05/28 05:11:43;;;;;;;6.92;3.98;;;;;;;9.76;77.80;96863.33;1809174;79;27324;-78
2022/05/28 05:14:10;;;;;;;9.03;4.50;;;;;;;9.84;77.83;96869.78;1808694;79;25673;-79
2022/05/28 05:16:36;;;;;;;8.40;3.60;;;;;;;9.91;77.85;96870.55;1809174;79;25736;-79
2022/05/28 05:19:03;;;;;;;9.45;3.42;;;;;;;9.98;77.09;96866.47;1809109;79;26466;-76
2022/05/28 05:21:29;;;;;;;8.68;3.70;;;;;;;10.07;76.65;96869.17;1809070;79;25728;-76
2022/05/28 05:23:56;;;;;;;8.75;3.05;;;;;;;10.18;76.83;96872.53;1808829;79;27291;-76
2022/05/28 05:26:22;;;;;;;5.35;2.50;;;;;;;10.26;76.36;96869.56;1794423;79;25425;-77
2022/05/28 05:28:50;;;;;;;5.58;2.05;;;;;;;10.35;75.69;96883.58;1763308;80;25777;-77
2022/05/28 05:31:17;;;;;;;8.03;2.30;;;;;;;10.45;75.30;96875.28;1763282;81;25804;-77
2022/05/28 05:33:44;;;;;;;8.98;2.55;;;;;;;10.55;74.91;96873.41;1763280;81;25423;-76
2022/05/28 05:36:11;;;;;;;7.03;2.10;;;;;;;10.66;74.64;96879.92;1763373;81;27368;-77
2022/05/28 05:38:39;;;;;;;8.48;2.27;;;;;;;10.74;74.60;96882.34;1763136;81;25629;-77
2022/05/28 05:41:06;;;;;;;2.72;1.98;;;;;;;10.79;73.88;96881.13;1763258;81;25675;-76
2022/05/28 05:43:33;;;;;;;9.13;2.37;;;;;;;10.82;73.77;96886.09;1763343;81;25762;-77
2022/05/28 05:46:01;;;;;;;10.28;2.60;;;;;;;10.88;72.96;96886.52;1763291;81;25667;-77
2022/05/28 05:48:30;;;;;;;8.48;2.30;;;;;;;10.97;72.82;96886.54;1763344;81;28216;-78
2022/05/28 05:50:56;;;;;;;5.97;2.62;;;;;;;11.04;72.15;96880.52;1762913;81;25724;-75
2022/05/28 05:53:23;;;;;;;6.10;2.40;;;;;;;11.05;71.87;96883.52;1763457;81;25813;-77
2022/05/28 05:55:49;;;;;;;5.97;2.47;;;;;;;11.13;71.61;96876.97;1763316;81;26432;-75
2022/05/28 05:58:16;;;;;;;7.42;2.45;;;;;;;11.23;71.28;96881.86;1763022;81;25796;-78
2022/05/28 06:00:42;;;;;;;5.12;2.75;;;;;;;11.34;70.86;96882.44;1762521;81;28226;-75
2022/05/28 06:03:16;;;;;;;4.40;2.20;;;;;;;11.41;70.52;96876.40;1760112;81;25818;-76
2022/05/28 06:05:43;;;;;;;9.73;2.50;;;;;;;11.41;70.23;96879.09;1757340;81;26439;-76
2022/05/28 06:08:10;;;;;;;6.08;2.30;;;;;;;11.43;69.97;96878.34;1797536;79;26344;-74
2022/05/28 06:10:37;;;;;;;5.62;2.47;;;;;;;11.47;69.49;96882.25;1797520;79;25645;-75
2022/05/28 06:13:04;;;;;;;7.55;2.00;;;;;;;11.48;68.85;96867.66;1797449;79;27329;-75
2022/05/28 06:15:30;;;;;;;6.70;2.25;;;;;;;11.53;68.47;96867.80;1797305;79;25763;-76
2022/05/28 06:17:57;;;;;;;9.98;2.65;;;;;;;11.59;68.11;96873.66;1797529;79;25637;-77
2022/05/28 06:20:24;;;;;;;5.58;2.47;;;;;;;11.67;67.73;96874.67;1797612;79;26287;-77
2022/05/28 06:22:50;;;;;;;6.50;2.17;;;;;;;11.73;67.13;96866.97;1797571;79;25771;-75
2022/05/28 06:25:17;;;;;;;7.08;2.20;;;;;;;11.79;66.46;96870.67;1797256;79;27348;-77
2022/05/28 06:27:46;;;;;;;10.53;2.60;;;;;;;11.84;65.87;96861.31;1797175;79;25847;-74
2022/05/28 06:30:13;;;;;;;5.47;1.90;;;;;;;11.95;66.16;96863.77;1797411;79;25727;-76
2022/05/28 06:32:39;;;;;;;6.87;2.15;;;;;;;12.07;65.80;96859.20;1797434;79;25731;-75
2022/05/28 06:35:08;;;;;;;6.42;2.17;;;;;;;12.11;65.18;96859.01;1797435;79;25648;-80
2022/05/28 06:37:34;;;;;;;5.87;1.90;;;;;;;12.18;64.90;96855.16;1797599;79;28240;-77
2022/05/28 06:40:01;;;;;;;11.30;2.17;;;;;;;12.28;64.87;96855.91;1797358;79;25664;-76
2022/05/28 06:42:27;;;;;;;8.30;3.20;;;;;;;12.37;64.50;96860.44;1797550;79;25705;-76
2022/05/28 06:44:55;;;;;;;7.25;2.30;;;;;;;12.41;64.25;96859.73;1797420;79;25765;-77
2022/05/28 06:47:22;;;;;;;5.35;2.02;;;;;;;12.48;64.12;96868.55;1797293;79;25931;-77
2022/05/28 06:52:34;;;;;;;7.12;1.87;;;;;;;12.58;63.18;96851.17;1797366;79;25726;-78
2022/05/28 06:55:03;;;;;;;7.33;1.72;;;;;;;12.66;62.62;96846.47;1797462;79;25748;-76
2022/05/28 06:57:29;;;;;;;7.78;1.92;;;;;;;12.72;62.38;96849.56;1797382;79;25765;-75
2022/05/28 07:00:00;;;;;;;6.72;2.30;;;;;;;12.69;61.61;96841.38;1797518;79;25509;-75
2022/05/28 07:02:27;;;;;;;5.37;1.90;;;;;;;12.69;61.67;96852.74;1817097;78;27394;-75
2022/05/28 07:04:53;;;;;;;7.80;2.00;;;;;;;12.69;61.18;96844.09;1817068;78;25863;-76
2022/05/28 07:07:20;;;;;;;5.15;1.77;;;;;;;12.77;61.08;96848.33;1797433;79;25682;-77
2022/05/28 07:09:46;;;;;;;9.25;1.98;;;;;;;12.87;61.11;96840.41;1797348;79;26675;-76
2022/05/28 07:12:14;;;;;;;6.00;1.82;;;;;;;12.95;61.04;96842.74;1797542;79;25687;-76
2022/05/28 07:14:41;;;;;;;6.10;2.05;;;;;;;12.95;60.72;96842.21;1797420;79;27366;-79
2022/05/28 07:17:07;;;;;;;6.58;1.60;;;;;;;12.95;60.24;96837.33;1797132;79;25908;-76
2022/05/28 07:19:34;;;;;;;8.75;1.87;;;;;;;13.03;59.98;96837.50;1797039;79;25693;-75
2022/05/28 07:22:00;;;;;;;6.42;1.72;;;;;;;13.12;60.12;96835.52;1796445;79;25823;-77
2022/05/28 07:24:27;;;;;;;8.68;1.85;;;;;;;13.16;59.66;96829.91;1792815;79;25685;-75
2022/05/28 07:26:54;;;;;;;8.73;1.90;;;;;;;13.12;58.74;96820.61;1756253;81;27472;-76
2022/05/28 07:29:20;;;;;;;4.87;2.00;;;;;;;13.15;58.77;96817.45;1762914;81;25419;-75
2022/05/28 07:31:47;;;;;;;4.12;1.72;;;;;;;13.21;58.97;96820.54;1763627;81;25734;-76
2022/05/28 07:34:13;;;;;;;7.62;1.75;;;;;;;13.33;59.34;96815.89;1763201;81;25742;-75
2022/05/28 07:36:40;;;;;;;10.35;2.60;;;;;;;13.46;58.80;96802.56;1753022;81;25798;-75
2022/05/28 07:39:06;;;;;;;9.50;2.17;;;;;;;13.58;58.64;96810.63;1763729;81;28256;-76
2022/05/28 07:41:33;;;;;;;7.62;1.90;;;;;;;13.70;58.01;96808.14;1763682;81;25697;-75
2022/05/28 07:43:59;;;;;;;5.40;1.87;;;;;;;13.77;58.11;96809.33;1763707;81;25684;-74
2022/05/28 07:46:32;;;;;;;7.45;2.10;;;;;;;13.90;57.81;96800.04;1783181;80;25729;-78
2022/05/28 07:49:01;;;;;;;6.92;2.22;;;;;;;14.09;57.33;96806.05;1783904;80;25278;-76
2022/05/28 07:51:28;;;;;;;5.55;1.95;;;;;;;14.39;56.91;96810.56;1786185;80;27358;-76
2022/05/28 07:53:55;;;;;;;11.10;2.15;;;;;;;14.47;56.44;96807.47;1786097;80;25210;-75
2022/05/28 07:56:22;;;;;;;7.80;1.82;;;;;;;14.83;56.36;96800.61;1783005;80;25702;-77
2022/05/28 07:58:54;;;;;;;6.00;1.85;;;;;;;15.29;56.16;96802.49;1775950;80;26538;-75
2022/05/28 08:01:28;;;;;;;6.42;1.90;;;;;;;15.81;55.98;96806.85;1784922;80;25671;-76
2022/05/28 08:03:59;;;;;;;4.50;1.60;;;;;;;16.34;54.99;96800.97;1665958;85;27001;-77
2022/05/28 08:06:25;;;;;;;7.30;2.17;;;;;;;16.66;54.44;96788.14;1674381;85;25786;-77
2022/05/28 08:08:52;;;;;;;5.45;1.92;;;;;;;16.50;53.47;96789.10;1661163;85;25851;-75
2022/05/28 08:11:21;;;;;;;7.70;1.92;;;;;;;16.48;53.83;96791.27;1649666;86;25733;-80
2022/05/28 08:13:48;;;;;;;8.58;2.27;;;;;;;16.48;53.39;96795.34;1649908;86;25590;-76
2022/05/28 08:16:15;;;;;;;4.28;2.00;;;;;;;16.61;52.93;96788.07;1649807;86;28347;-77
2022/05/28 08:18:42;;;;;;;7.72;1.92;;;;;;;16.67;52.49;96789.75;1649691;86;25841;-76
2022/05/28 08:23:54;;;;;;;4.50;1.70;;;;;;;17.18;51.52;96787.23;1649738;86;25939;-77
2022/05/28 08:26:21;;;;;;;5.05;1.42;;;;;;;17.24;51.68;96780.73;1663904;86;25895;-76
2022/05/28 08:28:50;;;;;;;8.75;2.02;;;;;;;17.56;51.13;96779.14;1669541;84;27433;-77
2022/05/28 08:31:18;;;;;;;5.30;1.80;;;;;;;17.74;50.91;96788.22;1679007;83;25309;-78
2022/05/28 08:33:46;;;;;;;3.87;1.45;;;;;;;18.03;50.15;96781.66;1680462;84;25929;-77
2022/05/28 08:36:13;;;;;;;5.37;1.75;;;;;;;18.12;49.19;96780.00;1675701;85;25794;-77
2022/05/28 08:38:40;;;;;;;8.13;1.62;;;;;;;18.64;49.45;96778.31;1675169;85;25765;-77
2022/05/28 08:41:24;;;;;;;6.55;1.57;;;;;;;19.03;48.40;96778.45;1675324;85;27375;-76
2022/05/28 08:44:23;;;;;;;6.55;1.52;;;;;;;19.03;48.40;96778.45;1653556;86;25837;-79
2022/05/28 08:47:06;;;;;;;5.87;1.77;;;;;;;19.86;48.21;96774.14;1605738;86;26069;-76
2022/05/28 08:49:35;;;;;;;3.10;1.65;;;;;;;20.22;47.59;96780.96;1621268;86;25717;-81
2022/05/28 08:52:09;;;;;;;5.50;1.90;;;;;;;20.12;46.61;96780.50;1626945;86;25846;-77
2022/05/28 08:54:59;;;;;;;7.58;2.17;;;;;;;19.65;45.75;96792.65;1625084;87;28075;-77
2022/05/28 08:57:37;;;;;;;6.05;2.00;;;;;;;18.97;45.45;96786.39;1587282;89;25854;-76
2022/05/28 09:00:15;;;;;;;3.75;1.80;;;;;;;18.08;46.24;96769.92;1512826;91;26053;-76
2022/05/28 09:02:54;;;;;;;6.08;1.57;;;;;;;17.77;45.66;96778.64;1556487;91;25882;-76
2022/05/28 09:05:37;;;;;;;5.33;1.77;;;;;;;17.17;46.43;96791.05;1537383;91;25819;-76
2022/05/28 09:08:06;;;;;;;9.23;1.95;;;;;;;16.53;46.76;96794.03;1552843;91;28178;-75
2022/05/28 09:10:38;;;;;;;6.67;1.42;;;;;;;16.40;47.62;96790.41;1556457;91;25830;-75
2022/05/28 09:13:13;;;;;;;7.15;1.67;;;;;;;16.88;48.51;96786.06;1483220;96;25931;-75
2022/05/28 09:15:42;;;;;;;3.15;1.67;;;;;;;17.62;48.44;96780.27;1479955;96;26476;-77
2022/05/28 09:18:10;;;;;;;5.55;1.85;;;;;;;18.32;48.02;96778.63;1495952;95;25456;-76
2022/05/28 09:20:40;;;;;;;6.80;1.50;;;;;;;19.01;47.53;96787.48;1495620;95;27601;-76
2022/05/28 09:23:07;;;;;;;5.72;1.77;;;;;;;19.78;46.75;96779.14;1510818;93;25948;-76
2022/05/28 09:25:40;;;;;;;2.87;1.70;;;;;;;20.20;46.28;96785.09;1556014;91;25890;-76
2022/05/28 09:28:17;;;;;;;4.00;1.85;;;;;;;20.57;45.24;96762.00;1556161;92;25813;-76
2022/05/28 09:31:01;;;;;;;4.35;1.70;;;;;;;20.95;44.16;96773.09;1511530;94;26092;-77
2022/05/28 09:33:56;;;;;;;6.33;1.37;;;;;;;20.75;43.40;96760.45;1511300;94;27418;-76
2022/05/28 09:36:54;;;;;;;4.78;1.62;;;;;;;20.47;43.02;96764.30;1512961;93;26014;-76
2022/05/28 09:40:04;;;;;;;7.58;1.92;;;;;;;20.18;42.85;96771.67;1535746;93;25889;-77
2022/05/28 09:42:51;;;;;;;4.72;1.70;;;;;;;19.85;42.39;96769.22;1494621;95;25786;-77
2022/05/28 09:45:41;;;;;;;4.53;1.55;;;;;;;19.28;42.97;96772.03;1478242;97;25843;-76
2022/05/28 09:48:20;;;;;;;5.55;1.30;;;;;;;19.55;42.83;96751.66;1496779;94;27416;-76
2022/05/28 09:50:47;;;;;;;4.55;1.47;;;;;;;19.82;43.33;96760.20;1529630;93;25833;-77
2022/05/28 09:56:36;;;;;;;4.72;1.50;;;;;;;19.66;41.36;96732.14;1532174;93;25748;-77
2022/05/28 09:59:07;;;;;;;4.47;1.35;;;;;;;19.60;40.85;96738.73;1505385;95;27102;-78
2022/05/28 10:01:34;;;;;;;6.55;1.47;;;;;;;19.24;41.16;96742.22;1504933;95;28015;-77
2022/05/28 10:06:56;;;;;;;7.28;2.60;;;;;;;18.73;40.47;96729.34;1507376;95;25875;-79
2022/05/28 10:09:27;;;;;;;2.90;1.70;;;;;;;18.30;39.88;96756.23;1505237;93;26703;-81
2022/05/28 10:12:13;;;;;;;4.47;1.30;;;;;;;18.10;39.73;96742.62;1485605;95;26015;-80
2022/05/28 10:14:40;;;;;;;4.92;1.42;;;;;;;18.14;39.79;96749.69;1509984;94;26923;-77
2022/05/28 10:17:07;;;;;;;3.60;1.50;;;;;;;18.14;39.76;96732.75;1517242;93;25874;-77
2022/05/28 10:19:43;;;;;;;2.80;1.30;;;;;;;18.24;39.81;96728.63;1531154;92;26487;-79
2022/05/28 10:22:19;;;;;;;2.95;1.47;;;;;;;18.27;39.61;96729.45;1555157;88;25712;-80
2022/05/28 10:24:54;;;;;;;4.62;1.45;;;;;;;18.39;39.74;96736.53;1619251;85;25839;-76
2022/05/28 10:27:38;;;;;;;3.80;1.40;;;;;;;18.39;39.52;96724.23;1679337;84;28514;-77
2022/05/28 10:30:09;;;;;;;4.67;1.60;;;;;;;18.54;39.67;96729.66;1594877;89;25812;-76
2022/05/28 10:32:49;;;;;;;3.77;1.77;;;;;;;18.93;39.12;96715.59;1596162;89;25850;-76
2022/05/28 10:35:26;;;;;;;5.47;1.80;;;;;;;19.06;39.43;96725.11;1596116;89;25902;-75
2022/05/28 10:38:08;;;;;;;7.40;1.65;;;;;;;19.42;39.89;96714.21;1596179;89;25959;-76
2022/05/28 10:40:51;;;;;;;4.60;1.30;;;;;;;19.47;39.29;96706.50;1597511;89;27586;-77
2022/05/28 10:43:38;;;;;;;4.40;1.50;;;;;;;19.24;38.37;96705.84;1594644;89;25799;-77
2022/05/28 10:46:13;;;;;;;3.85;1.37;;;;;;;19.28;37.87;96709.66;1595000;89;26051;-82
2022/05/28 10:49:18;;;;;;;7.03;1.25;;;;;;;19.81;38.35;96716.66;1595485;89;25888;-77
2022/05/28 10:52:17;;;;;;;2.33;1.15;;;;;;;20.14;36.98;96696.66;1596106;89;25919;-76
2022/05/28 10:55:07;;;;;;;4.45;1.60;;;;;;;19.79;36.37;96706.02;1600765;84;27417;-77
2022/05/28 10:58:18;;;;;;;5.47;1.60;;;;;;;19.57;36.20;96706.45;1689285;84;26484;-77
2022/05/28 11:01:04;;;;;;;5.10;1.20;;;;;;;19.68;36.58;96721.69;1690202;84;25847;-77
2022/05/28 11:03:53;;;;;;;2.90;1.30;;;;;;;19.98;34.96;96712.41;1586599;89;26541;-77
2022/05/28 11:06:50;;;;;;;6.37;1.65;;;;;;;20.16;36.59;96701.30;1559891;88;25753;-76
2022/05/28 11:09:24;;;;;;;5.47;1.70;;;;;;;19.83;36.32;96699.39;1619256;87;28212;-79
2022/05/28 11:12:12;;;;;;;2.25;1.20;;;;;;;19.35;37.06;96692.35;1622490;87;25909;-76
2022/05/28 11:14:52;;;;;;;3.35;1.40;;;;;;;19.47;38.09;96692.81;1622534;87;25894;-76
2022/05/28 11:17:25;;;;;;;5.55;1.70;;;;;;;19.60;38.21;96692.75;1622630;87;26562;-77
2022/05/28 11:20:12;;;;;;;5.60;1.52;;;;;;;19.76;37.86;96696.45;1622557;87;25824;-77
2022/05/28 11:22:55;;;;;;;3.02;1.22;;;;;;;19.99;37.47;96699.53;1622643;87;27420;-78
2022/05/28 11:26:02;;;;;;;3.20;1.90;;;;;;;20.10;37.01;96699.14;1619826;87;25833;-77
2022/05/28 11:28:54;;;;;;;4.47;1.40;;;;;;;20.15;36.80;96699.66;1564220;91;25803;-77
2022/05/28 11:31:54;;;;;;;3.27;1.37;;;;;;;20.44;36.54;96709.23;1536444;91;25740;-77
2022/05/28 11:34:47;;;;;;;2.85;1.35;;;;;;;20.54;35.84;96714.59;1534719;92;25964;-78
2022/05/28 11:37:18;;;;;;;2.17;1.00;;;;;;;20.37;34.85;96698.63;1536206;92;27380;-78
2022/05/28 11:40:09;;;;;;;1.73;1.10;;;;;;;20.18;34.54;96702.35;1532660;90;25557;-77
2022/05/28 11:43:30;;;;;;;8.08;1.50;;;;;;;19.77;34.47;96703.57;1579887;90;25790;-79
2022/05/28 11:46:31;;;;;;;1.52;0.82;;;;;;;19.63;35.08;96708.61;1545555;92;25924;-77
2022/05/28 11:52:32;;;;;;;3.60;1.50;;;;;;;18.88;33.03;96715.61;1531420;93;27046;-77
2022/05/28 11:55:10;;;;;;;8.28;1.95;;;;;;;17.79;35.44;96723.23;1510400;94;25747;-78
2022/05/28 11:57:54;;;;;;;5.72;2.70;;;;;;;16.82;37.28;96747.59;1510542;94;25912;-76
2022/05/28 12:00:22;;;;;;;5.20;2.60;;;;;;;16.36;38.68;96757.96;1510428;94;25999;-76
2022/05/28 12:02:59;;;;;;;6.33;1.77;;;;;;;16.17;39.71;96761.13;1510427;94;26573;-76
2022/05/28 12:05:46;;;;;;;6.33;1.60;;;;;;;15.96;40.26;96762.59;1510398;94;28450;-79
2022/05/28 12:08:33;;;;;;;4.37;1.95;;;;;;;15.86;41.45;96759.25;1488073;95;26344;-77
2022/05/28 12:11:07;;;;;;;4.58;1.60;;;;;;;15.78;42.85;96762.47;1440227;99;26566;-76
2022/05/28 12:13:50;;;;;;;3.85;1.67;;;;;;;16.03;43.00;96768.11;1442419;99;25810;-76
2022/05/28 12:16:34;;;;;;;2.30;1.40;;;;;;;16.16;42.98;96764.94;1442330;99;26986;-76